createdAt,value
2017-07-31T00:00:39.269Z,13.37
2017-07-31T00:03:07.141Z,8.80
2017-07-31T00:05:34.874Z,8.37
2017-07-31T00:08:02.669Z,9.13
2017-07-31T00:10:30.534Z,11.07
2017-07-31T00:12:58.220Z,9.43
2017-07-31T00:15:25.861Z,9.70
2017-07-31T00:17:53.530Z,10.33
2017-07-31T00:20:21.191Z,11.10
2017-07-31T00:22:48.850Z,10.77
2017-07-31T00:25:16.717Z,11.37
2017-07-31T00:27:44.549Z,10.17
2017-07-31T00:30:12.444Z,10.73
2017-07-31T00:32:40.484Z,10.63
2017-07-31T00:35:08.200Z,10.00
2017-07-31T00:37:35.840Z,11.00
2017-07-31T00:40:03.862Z,11.10
2017-07-31T00:42:31.578Z,11.03
2017-07-31T00:44:59.237Z,11.10
2017-07-31T00:47:27.106Z,12.43
2017-07-31T00:49:55.179Z,9.13
2017-07-31T00:52:22.850Z,8.60
2017-07-31T00:54:50.765Z,9.70
2017-07-31T00:57:18.356Z,10.13
2017-07-31T00:59:46.221Z,8.70
2017-07-31T01:02:14.016Z,9.70
2017-07-31T01:04:41.972Z,9.40
2017-07-31T01:07:09.822Z,9.20
2017-07-31T01:09:37.568Z,8.90
2017-07-31T01:12:05.551Z,10.20
2017-07-31T01:14:33.299Z,11.23
2017-07-31T01:17:01.097Z,10.20
2017-07-31T01:19:28.969Z,8.70
2017-07-31T01:21:56.801Z,10.17
2017-07-31T01:24:24.512Z,11.50
2017-07-31T01:26:52.104Z,15.90
2017-07-31T01:29:20.024Z,20.67
2017-07-31T01:31:47.900Z,9.70
2017-07-31T01:34:15.732Z,21.50
2017-07-31T01:36:43.478Z,8.70
2017-07-31T01:39:11.466Z,9.60
2017-07-31T01:41:39.135Z,9.20
2017-07-31T01:44:06.878Z,12.17
2017-07-31T01:46:34.689Z,9.83
2017-07-31T01:49:02.535Z,9.77
2017-07-31T01:51:30.523Z,9.17
2017-07-31T01:53:59.325Z,10.13
2017-07-31T01:56:26.975Z,8.80
2017-07-31T01:58:54.646Z,9.70
2017-07-31T02:01:22.508Z,7.73
2017-07-31T02:03:50.160Z,8.50
2017-07-31T02:06:17.875Z,8.27
2017-07-31T02:08:45.871Z,8.30
2017-07-31T02:11:13.615Z,9.23
2017-07-31T02:13:41.575Z,7.47
2017-07-31T02:16:09.281Z,8.60
2017-07-31T02:18:37.134Z,8.70
2017-07-31T02:21:05.000Z,9.70
2017-07-31T02:23:32.751Z,7.97
2017-07-31T02:26:00.467Z,8.43
2017-07-31T02:28:28.250Z,8.40
2017-07-31T02:30:56.085Z,9.60
2017-07-31T02:33:23.917Z,8.63
2017-07-31T02:35:51.611Z,9.00
2017-07-31T02:38:19.446Z,9.30
2017-07-31T02:40:47.041Z,8.33
2017-07-31T02:43:14.934Z,10.00
2017-07-31T02:45:42.874Z,9.30
2017-07-31T02:48:10.594Z,9.23
2017-07-31T02:50:38.559Z,9.53
2017-07-31T02:53:06.554Z,12.40
2017-07-31T02:55:34.396Z,9.00
2017-07-31T02:58:02.209Z,10.77
2017-07-31T03:00:30.278Z,9.07
2017-07-31T03:02:57.948Z,11.20
2017-07-31T03:05:25.609Z,11.00
2017-07-31T03:07:53.681Z,11.33
2017-07-31T03:10:21.514Z,10.83
2017-07-31T03:12:49.213Z,10.13
2017-07-31T03:15:17.126Z,10.67
2017-07-31T03:17:45.092Z,9.83
2017-07-31T03:20:13.018Z,10.83
2017-07-31T03:22:41.087Z,10.23
2017-07-31T03:25:08.795Z,9.20
2017-07-31T03:27:36.717Z,9.57
2017-07-31T03:30:04.689Z,9.90
2017-07-31T03:32:32.524Z,9.43
2017-07-31T03:35:00.243Z,10.10
2017-07-31T03:37:27.958Z,8.67
2017-07-31T03:39:55.700Z,9.47
2017-07-31T03:42:23.411Z,9.67
2017-07-31T03:44:51.432Z,9.30
2017-07-31T03:47:19.131Z,9.17
2017-07-31T03:49:47.017Z,10.10
2017-07-31T03:52:15.058Z,9.17
2017-07-31T03:54:43.000Z,7.80
2017-07-31T03:57:10.820Z,6.57
2017-07-31T03:59:38.733Z,6.43
2017-07-31T04:02:06.752Z,5.33
2017-07-31T04:04:34.468Z,5.63
2017-07-31T04:07:02.337Z,5.97
2017-07-31T04:09:30.158Z,5.07
2017-07-31T04:11:57.813Z,5.53
2017-07-31T04:14:25.883Z,5.20
2017-07-31T04:16:53.548Z,5.73
2017-07-31T04:19:21.412Z,5.90
2017-07-31T04:21:49.074Z,4.77
2017-07-31T04:24:16.928Z,4.30
2017-07-31T04:26:44.597Z,5.40
2017-07-31T04:29:12.674Z,5.57
2017-07-31T04:31:40.510Z,5.43
2017-07-31T04:34:08.324Z,5.60
2017-07-31T04:36:36.167Z,7.13
2017-07-31T04:39:04.058Z,7.00
2017-07-31T04:41:32.010Z,7.80
2017-07-31T04:43:59.792Z,9.67
2017-07-31T04:46:27.541Z,8.10
2017-07-31T04:48:55.253Z,7.07
2017-07-31T04:51:23.119Z,7.30
2017-07-31T04:53:50.939Z,6.60
2017-07-31T04:56:18.598Z,7.37
2017-07-31T04:58:46.596Z,6.90
2017-07-31T05:01:14.387Z,8.83
2017-07-31T05:03:42.254Z,7.87
2017-07-31T05:06:10.122Z,8.13
2017-07-31T05:08:37.990Z,6.73
2017-07-31T05:11:05.858Z,5.90
2017-07-31T05:13:33.871Z,6.57
2017-07-31T05:16:01.537Z,5.03
2017-07-31T05:18:29.209Z,6.00
2017-07-31T05:20:57.251Z,6.90
2017-07-31T05:23:25.022Z,5.80
2017-07-31T05:25:52.796Z,5.53
2017-07-31T05:28:20.470Z,4.80
2017-07-31T05:30:48.124Z,5.93
2017-07-31T05:33:15.958Z,5.80
2017-07-31T05:35:43.828Z,5.47
2017-07-31T05:38:11.691Z,6.27
2017-07-31T05:40:39.439Z,5.27
2017-07-31T05:43:07.306Z,5.67
2017-07-31T05:45:35.173Z,6.47
2017-07-31T05:48:03.090Z,6.10
2017-07-31T05:50:30.880Z,7.33
2017-07-31T05:52:58.922Z,7.30
2017-07-31T05:55:26.765Z,6.80
2017-07-31T05:57:54.863Z,6.20
2017-07-31T06:00:22.876Z,8.83
2017-07-31T06:02:50.604Z,5.57
2017-07-31T06:05:18.536Z,6.43
2017-07-31T06:07:46.532Z,4.80
2017-07-31T06:10:14.371Z,5.13
2017-07-31T06:12:42.266Z,5.00
2017-07-31T06:15:10.136Z,4.07
2017-07-31T06:17:37.798Z,4.87
2017-07-31T06:20:05.867Z,4.30
2017-07-31T06:22:33.736Z,5.50
2017-07-31T06:25:01.604Z,4.90
2017-07-31T06:27:29.617Z,5.80
2017-07-31T06:29:57.460Z,3.90
2017-07-31T06:32:25.414Z,5.57
2017-07-31T06:34:53.467Z,6.85
2017-07-31T06:37:21.163Z,5.47
2017-07-31T06:39:48.806Z,6.05
2017-07-31T06:42:16.721Z,7.93
2017-07-31T06:44:44.741Z,18.85
2017-07-31T06:47:12.603Z,7.50
2017-07-31T06:49:40.624Z,5.70
2017-07-31T06:52:08.341Z,4.30
2017-07-31T06:54:36.133Z,8.05
2017-07-31T06:57:03.965Z,5.43
2017-07-31T06:59:31.634Z,3.90
2017-07-31T07:01:59.300Z,3.80
2017-07-31T07:04:27.167Z,6.35
2017-07-31T07:06:54.895Z,9.85
2017-07-31T07:09:22.898Z,4.28
2017-07-31T07:11:50.753Z,3.15
2017-07-31T07:14:18.418Z,3.70
2017-07-31T07:16:46.264Z,4.10
2017-07-31T07:19:14.134Z,3.97
2017-07-31T07:21:41.823Z,4.07
2017-07-31T07:24:09.539Z,4.45
2017-07-31T07:26:37.411Z,4.85
2017-07-31T07:29:05.278Z,3.83
2017-07-31T07:31:33.194Z,3.72
2017-07-31T07:34:00.957Z,3.45
2017-07-31T07:36:28.623Z,4.18
2017-07-31T07:38:56.290Z,3.80
2017-07-31T07:41:24.315Z,3.60
2017-07-31T07:43:52.217Z,4.05
2017-07-31T07:46:19.879Z,3.58
2017-07-31T07:48:47.842Z,4.12
2017-07-31T07:51:15.782Z,4.05
2017-07-31T07:53:43.685Z,3.60
2017-07-31T07:56:11.756Z,3.37
2017-07-31T07:58:39.608Z,4.03
2017-07-31T08:01:07.355Z,3.58
2017-07-31T08:03:35.342Z,3.40
2017-07-31T08:06:03.213Z,2.47
2017-07-31T08:08:30.954Z,3.40
2017-07-31T08:10:58.958Z,2.67
2017-07-31T08:13:26.619Z,2.72
2017-07-31T08:15:54.286Z,2.85
2017-07-31T08:18:22.148Z,2.62
2017-07-31T08:20:50.014Z,3.00
2017-07-31T08:23:17.857Z,3.00
2017-07-31T08:25:45.652Z,3.22
2017-07-31T08:28:13.412Z,3.20
2017-07-31T08:30:41.261Z,4.05
2017-07-31T08:33:09.330Z,2.80
2017-07-31T08:35:37.071Z,2.80
2017-07-31T08:38:05.090Z,3.45
2017-07-31T08:40:33.157Z,3.15
2017-07-31T08:43:00.997Z,3.75
2017-07-31T08:45:28.683Z,2.62
2017-07-31T08:47:56.530Z,2.70
2017-07-31T08:50:24.397Z,2.95
2017-07-31T08:52:52.266Z,2.80
2017-07-31T08:55:20.087Z,2.90
2017-07-31T08:57:48.029Z,3.40
2017-07-31T09:00:15.868Z,2.95
2017-07-31T09:02:43.941Z,3.10
2017-07-31T09:05:11.681Z,2.60
2017-07-31T09:07:39.588Z,2.45
2017-07-31T09:10:07.921Z,2.62
2017-07-31T09:12:35.882Z,2.33
2017-07-31T09:15:03.704Z,3.22
2017-07-31T09:17:31.496Z,2.62
2017-07-31T09:19:59.184Z,3.30
2017-07-31T09:22:26.882Z,2.83
2017-07-31T09:24:54.942Z,2.22
2017-07-31T09:27:22.631Z,2.35
2017-07-31T09:29:50.671Z,2.22
2017-07-31T09:32:18.658Z,1.50
2017-07-31T09:34:46.543Z,2.45
2017-07-31T09:37:14.504Z,1.67
2017-07-31T09:39:42.547Z,2.12
2017-07-31T09:42:10.290Z,2.30
2017-07-31T09:44:38.258Z,1.83
2017-07-31T09:47:06.379Z,2.67
2017-07-31T09:49:34.169Z,1.90
2017-07-31T09:52:02.116Z,2.30
2017-07-31T09:54:29.867Z,1.80
2017-07-31T09:56:57.646Z,1.80
2017-07-31T09:59:25.511Z,2.10
2017-07-31T10:01:53.353Z,2.10
2017-07-31T10:04:21.033Z,2.70
2017-07-31T10:06:48.713Z,2.37
2017-07-31T10:09:16.706Z,1.90
2017-07-31T10:11:44.640Z,2.08
2017-07-31T10:14:12.491Z,2.62
2017-07-31T10:16:40.559Z,2.42
2017-07-31T10:19:08.351Z,2.50
2017-07-31T10:21:36.312Z,2.70
2017-07-31T10:24:04.154Z,2.50
2017-07-31T10:26:31.841Z,2.22
2017-07-31T10:28:59.695Z,2.22
2017-07-31T10:31:27.441Z,2.95
2017-07-31T10:33:55.050Z,2.25
2017-07-31T10:36:22.693Z,2.60
2017-07-31T10:38:50.360Z,3.10
2017-07-31T10:41:18.221Z,2.28
2017-07-31T10:43:46.074Z,1.92
2017-07-31T10:46:13.823Z,2.65
2017-07-31T10:48:41.787Z,3.05
2017-07-31T10:51:09.504Z,2.97
2017-07-31T10:53:37.540Z,1.70
2017-07-31T10:56:05.287Z,2.08
2017-07-31T10:58:33.254Z,2.60
2017-07-31T11:01:01.123Z,2.12
2017-07-31T11:03:28.832Z,2.28
2017-07-31T11:05:56.704Z,2.35
2017-07-31T11:08:24.700Z,1.95
2017-07-31T11:10:52.627Z,2.42
2017-07-31T11:13:20.494Z,2.72
2017-07-31T11:15:48.453Z,1.95
2017-07-31T11:18:16.434Z,2.50
2017-07-31T11:20:44.098Z,2.60
2017-07-31T11:23:12.165Z,2.75
2017-07-31T11:25:40.021Z,2.78
2017-07-31T11:28:07.860Z,2.95
2017-07-31T11:30:35.625Z,2.67
2017-07-31T11:33:03.637Z,2.67
2017-07-31T11:35:31.327Z,2.90
2017-07-31T11:37:59.309Z,2.60
2017-07-31T11:40:27.029Z,3.30
2017-07-31T11:42:54.867Z,2.90
2017-07-31T11:45:22.763Z,2.75
2017-07-31T11:47:50.478Z,3.10
2017-07-31T11:50:18.286Z,2.83
2017-07-31T11:52:46.159Z,2.58
2017-07-31T11:55:13.880Z,2.15
2017-07-31T11:57:41.893Z,3.17
2017-07-31T12:00:09.770Z,2.83
2017-07-31T12:02:37.627Z,2.42
2017-07-31T12:05:05.351Z,2.47
2017-07-31T12:07:33.339Z,2.92
2017-07-31T12:10:01.052Z,2.30
2017-07-31T12:12:29.051Z,5.43
2017-07-31T12:14:56.767Z,2.87
2017-07-31T12:17:24.427Z,4.10
2017-07-31T12:19:52.081Z,1.92
2017-07-31T12:22:19.955Z,3.45
2017-07-31T12:24:47.664Z,2.28
2017-07-31T12:27:15.485Z,2.33
2017-07-31T12:29:43.523Z,2.10
2017-07-31T12:32:11.387Z,2.42
2017-07-31T12:34:39.256Z,2.03
2017-07-31T12:37:07.000Z,2.20
2017-07-31T12:39:34.867Z,2.10
2017-07-31T12:42:02.491Z,1.90
2017-07-31T12:44:30.176Z,1.73
2017-07-31T12:46:57.796Z,1.75
2017-07-31T12:49:25.515Z,2.40
2017-07-31T12:51:53.327Z,2.25
2017-07-31T12:54:20.992Z,2.37
2017-07-31T12:56:48.837Z,2.87
2017-07-31T12:59:16.682Z,2.50
2017-07-31T13:01:44.571Z,2.73
2017-07-31T13:04:12.637Z,2.47
2017-07-31T13:06:40.734Z,2.40
2017-07-31T13:09:08.451Z,3.07
2017-07-31T13:11:36.254Z,3.60
2017-07-31T13:14:03.986Z,2.53
2017-07-31T13:16:31.791Z,3.57
2017-07-31T13:18:59.656Z,2.70
2017-07-31T13:21:27.319Z,2.60
2017-07-31T13:23:55.028Z,2.90
2017-07-31T13:26:22.647Z,2.37
2017-07-31T13:28:50.318Z,2.53
2017-07-31T13:31:18.154Z,3.30
2017-07-31T13:33:46.020Z,2.53
2017-07-31T13:36:13.886Z,2.87
2017-07-31T13:38:41.566Z,3.57
2017-07-31T13:41:09.296Z,2.73
2017-07-31T13:43:37.303Z,2.67
2017-07-31T13:46:05.006Z,3.23
2017-07-31T13:48:32.839Z,3.10
2017-07-31T13:51:00.668Z,3.00
2017-07-31T13:53:28.461Z,3.07
2017-07-31T13:55:56.431Z,3.13
2017-07-31T13:58:24.447Z,4.30
2017-07-31T14:00:52.287Z,2.57
2017-07-31T14:03:20.036Z,2.67
2017-07-31T14:05:48.103Z,3.50
2017-07-31T14:08:15.941Z,2.97
2017-07-31T14:10:43.808Z,3.00
2017-07-31T14:13:11.700Z,3.57
2017-07-31T14:15:39.358Z,3.70
2017-07-31T14:18:07.206Z,4.20
2017-07-31T14:20:35.075Z,4.10
2017-07-31T14:23:02.968Z,3.37
2017-07-31T14:25:30.633Z,4.60
2017-07-31T14:27:58.553Z,2.97
2017-07-31T14:30:26.152Z,4.50
2017-07-31T14:32:54.009Z,4.10
2017-07-31T14:35:21.950Z,3.10
2017-07-31T14:37:49.764Z,2.90
2017-07-31T14:40:17.417Z,4.27
2017-07-31T14:42:45.492Z,4.60
2017-07-31T14:45:13.221Z,3.50
2017-07-31T14:47:41.064Z,3.50
2017-07-31T14:50:09.093Z,3.70
2017-07-31T14:52:36.926Z,3.93
2017-07-31T14:55:04.667Z,4.00
2017-07-31T14:57:32.721Z,3.20
2017-07-31T15:00:00.544Z,3.43
2017-07-31T15:02:28.397Z,3.93
2017-07-31T15:04:56.231Z,4.13
2017-07-31T15:07:24.145Z,3.63
2017-07-31T15:09:51.730Z,3.90
2017-07-31T15:12:19.589Z,3.83
2017-07-31T15:14:47.404Z,3.00
2017-07-31T15:17:15.213Z,3.40
2017-07-31T15:19:43.267Z,3.47
2017-07-31T15:22:10.950Z,3.63
2017-07-31T15:24:38.674Z,4.50
2017-07-31T15:27:06.663Z,3.30
2017-07-31T15:29:34.257Z,3.33
2017-07-31T15:32:02.213Z,3.60
2017-07-31T15:34:30.269Z,3.57
2017-07-31T15:36:57.867Z,3.70
2017-07-31T15:39:25.614Z,3.93
2017-07-31T15:41:53.270Z,3.83
2017-07-31T15:44:20.860Z,3.80
2017-07-31T15:46:48.589Z,4.00
2017-07-31T15:49:16.283Z,3.47
2017-07-31T15:51:43.989Z,3.90
2017-07-31T15:54:11.992Z,4.20
2017-07-31T15:56:39.840Z,3.70
2017-07-31T15:59:07.713Z,3.83
2017-07-31T16:01:35.621Z,4.00
2017-07-31T16:04:03.461Z,3.63
2017-07-31T16:06:31.242Z,3.87
2017-07-31T16:08:59.360Z,3.70
2017-07-31T16:11:27.271Z,3.33
2017-07-31T16:13:54.932Z,3.60
2017-07-31T16:16:22.603Z,6.40
2017-07-31T16:18:50.254Z,4.13
2017-07-31T16:21:17.921Z,3.77
2017-07-31T16:23:45.956Z,4.00
2017-07-31T16:26:13.828Z,3.60
2017-07-31T16:28:41.694Z,4.47
2017-07-31T16:31:09.791Z,3.93
2017-07-31T16:33:37.457Z,4.00
2017-07-31T16:36:05.175Z,4.43
2017-07-31T16:38:38.918Z,4.43
2017-07-31T16:41:06.633Z,4.10
2017-07-31T16:43:46.137Z,4.40
2017-07-31T16:46:23.772Z,7.60
2017-07-31T16:49:03.360Z,3.57
2017-07-31T16:51:30.957Z,4.90
2017-07-31T16:53:58.792Z,5.43
2017-07-31T16:56:26.560Z,5.97
2017-07-31T16:58:54.402Z,5.30
2017-07-31T17:01:22.083Z,4.70
2017-07-31T17:03:50.134Z,5.10
2017-07-31T17:06:17.815Z,5.63
2017-07-31T17:08:45.669Z,6.00
2017-07-31T17:11:13.757Z,6.50
2017-07-31T17:13:41.426Z,5.20
2017-07-31T17:16:09.074Z,5.27
2017-07-31T17:18:36.951Z,4.73
2017-07-31T17:21:04.778Z,5.97
2017-07-31T17:23:32.596Z,5.50
2017-07-31T17:26:00.340Z,5.27
2017-07-31T17:28:28.001Z,5.93
2017-07-31T17:30:55.617Z,4.83
2017-07-31T17:33:23.432Z,6.10
2017-07-31T17:35:51.157Z,6.07
2017-07-31T17:38:18.761Z,6.70
2017-07-31T17:40:46.827Z,8.07
2017-07-31T17:43:14.536Z,18.90
2017-07-31T17:45:42.557Z,8.40
2017-07-31T17:48:10.454Z,6.80
2017-07-31T17:50:38.088Z,6.07
2017-07-31T17:53:06.007Z,9.00
2017-07-31T17:55:33.718Z,7.10
2017-07-31T17:58:01.486Z,7.37
2017-07-31T18:00:29.343Z,7.57
2017-07-31T18:02:57.197Z,8.27
2017-07-31T18:05:24.785Z,6.50
2017-07-31T18:07:52.753Z,8.00
2017-07-31T18:10:20.419Z,8.13
2017-07-31T18:12:48.279Z,8.13
2017-07-31T18:15:16.143Z,6.43
2017-07-31T18:17:43.978Z,6.93
2017-07-31T18:20:11.791Z,7.67
2017-07-31T18:22:39.541Z,6.60
2017-07-31T18:25:07.411Z,8.77
2017-07-31T18:27:35.273Z,8.43
2017-07-31T18:30:03.344Z,9.13
2017-07-31T18:32:31.327Z,10.77
2017-07-31T18:34:59.497Z,9.57
2017-07-31T18:37:27.950Z,7.53
2017-07-31T18:39:55.609Z,8.60
2017-07-31T18:42:23.373Z,8.40
2017-07-31T18:44:51.360Z,8.87
2017-07-31T18:47:19.031Z,8.30
2017-07-31T18:49:46.706Z,8.03
2017-07-31T18:52:14.560Z,9.00
2017-07-31T18:54:42.776Z,7.70
2017-07-31T18:57:10.876Z,7.40
2017-07-31T18:59:38.993Z,8.47
2017-07-31T19:02:06.953Z,8.40
2017-07-31T19:04:34.926Z,7.80
2017-07-31T19:07:02.871Z,8.50
2017-07-31T19:09:31.071Z,7.87
2017-07-31T19:11:59.038Z,9.40
2017-07-31T19:14:27.117Z,7.70
2017-07-31T19:16:55.394Z,9.27
2017-07-31T19:19:23.835Z,8.27
2017-07-31T19:21:51.941Z,7.97
2017-07-31T19:24:20.292Z,7.60
2017-07-31T19:26:48.424Z,8.33
2017-07-31T19:29:16.526Z,7.33
2017-07-31T19:31:44.656Z,7.73
2017-07-31T19:34:12.942Z,9.20
2017-07-31T19:36:40.827Z,8.33
2017-07-31T19:39:08.894Z,8.77
2017-07-31T19:41:37.039Z,7.70
2017-07-31T19:44:05.111Z,8.83
2017-07-31T19:46:32.868Z,8.90
2017-07-31T19:49:01.100Z,7.57
2017-07-31T19:51:29.429Z,8.30
2017-07-31T19:53:57.381Z,7.53
2017-07-31T19:56:25.215Z,7.93
2017-07-31T19:58:52.996Z,8.70
2017-07-31T20:01:21.162Z,8.70
2017-07-31T20:03:48.947Z,8.50
2017-07-31T20:06:16.845Z,9.47
2017-07-31T20:08:44.895Z,8.60
2017-07-31T20:11:12.844Z,9.30
2017-07-31T20:13:40.655Z,10.30
2017-07-31T20:16:08.574Z,9.90
2017-07-31T20:18:36.563Z,9.57
2017-07-31T20:21:04.493Z,9.70
2017-07-31T20:23:32.495Z,8.80
2017-07-31T20:26:00.217Z,9.30
2017-07-31T20:28:28.037Z,9.50
2017-07-31T20:30:55.650Z,8.33
2017-07-31T20:33:23.555Z,8.50
2017-07-31T20:35:51.608Z,9.50
2017-07-31T20:38:19.490Z,8.10
2017-07-31T20:40:47.098Z,9.30
2017-07-31T20:43:15.115Z,8.73
2017-07-31T20:45:43.086Z,9.40
2017-07-31T20:48:11.193Z,8.83
2017-07-31T20:50:39.410Z,12.40
2017-07-31T20:53:07.103Z,8.83
2017-07-31T20:55:34.815Z,6.67
2017-07-31T20:58:02.785Z,8.50
2017-07-31T21:00:30.499Z,8.60
2017-07-31T21:02:58.162Z,7.60
2017-07-31T21:05:26.222Z,9.80
2017-07-31T21:07:54.318Z,8.87
2017-07-31T21:10:22.350Z,10.63
2017-07-31T21:12:50.697Z,9.03
2017-07-31T21:15:18.554Z,8.40
2017-07-31T21:17:46.584Z,8.97
2017-07-31T21:20:14.291Z,10.30
2017-07-31T21:22:41.935Z,9.00
2017-07-31T21:25:09.532Z,9.60
2017-07-31T21:27:37.240Z,10.47
2017-07-31T21:30:04.837Z,15.20
2017-07-31T21:32:32.567Z,10.60
2017-07-31T21:35:00.432Z,12.03
2017-07-31T21:37:28.088Z,9.77
2017-07-31T21:39:55.701Z,8.50
2017-07-31T21:42:23.401Z,7.60
2017-07-31T21:44:51.086Z,10.10
2017-07-31T21:47:18.919Z,7.63
2017-07-31T21:49:46.788Z,8.30
2017-07-31T21:52:14.479Z,8.20
2017-07-31T21:54:42.109Z,7.13
2017-07-31T21:57:09.778Z,9.57
2017-07-31T21:59:37.406Z,8.83
2017-07-31T22:02:05.025Z,8.30
2017-07-31T22:04:32.711Z,9.07
2017-07-31T22:07:00.345Z,8.90
2017-07-31T22:09:28.245Z,9.17
2017-07-31T22:11:55.963Z,8.57
2017-07-31T22:14:23.689Z,8.57
2017-07-31T22:16:57.145Z,9.13
2017-07-31T22:19:25.072Z,9.80
2017-07-31T22:21:58.291Z,9.47
2017-07-31T22:24:26.379Z,9.30
2017-07-31T22:26:54.132Z,10.03
2017-07-31T22:29:21.790Z,8.40
2017-07-31T22:31:49.633Z,9.97
2017-07-31T22:34:17.373Z,9.57
2017-07-31T22:36:45.367Z,9.40
2017-07-31T22:39:13.056Z,12.40
2017-07-31T22:41:40.898Z,9.97
2017-07-31T22:44:08.554Z,9.80
2017-07-31T22:46:36.241Z,9.07
2017-07-31T22:49:03.914Z,9.40
2017-07-31T22:51:31.917Z,9.20
2017-07-31T22:53:59.852Z,9.60
2017-07-31T22:56:27.571Z,10.37
2017-07-31T22:58:55.563Z,9.87
2017-07-31T23:01:23.242Z,10.40
2017-07-31T23:03:50.918Z,8.73
2017-07-31T23:06:18.554Z,8.27
2017-07-31T23:08:46.153Z,10.10
2017-07-31T23:11:13.780Z,9.27
2017-07-31T23:13:41.443Z,10.10
2017-07-31T23:16:09.058Z,10.87
2017-07-31T23:18:36.680Z,9.77
2017-07-31T23:21:04.472Z,9.80
2017-07-31T23:23:32.084Z,9.97
2017-07-31T23:25:59.728Z,11.33
2017-07-31T23:28:27.406Z,10.90
2017-07-31T23:30:55.010Z,9.47
2017-07-31T23:33:22.669Z,12.83
2017-07-31T23:35:50.360Z,12.33
2017-07-31T23:38:17.980Z,11.60
2017-07-31T23:40:45.613Z,10.83
2017-07-31T23:43:13.299Z,11.60
2017-07-31T23:45:40.923Z,10.60
2017-07-31T23:48:08.681Z,11.27
2017-07-31T23:50:36.669Z,11.43
2017-07-31T23:53:04.475Z,9.50
2017-07-31T23:55:32.117Z,11.20
2017-07-31T23:57:59.797Z,10.60
